sensor_id;sensor_type;location;lat;lon;timestamp;temperature;humidity
61412;DHT22;47278;49.732;7.690;2023-02-01T00:01:31;6.40;99.90
61412;DHT22;47278;49.732;7.690;2023-02-01T00:03:57;6.40;99.90
61412;DHT22;47278;49.732;7.690;2023-02-01T00:06:22;6.40;99.90
61412;DHT22;47278;49.732;7.690;2023-02-01T00:08:48;6.40;99.90
61412;DHT22;47278;49.732;7.690;2023-02-01T00:11:14;6.40;99.90
61412;DHT22;47278;49.732;7.690;2023-02-01T00:13:40;6.40;99.90
61412;DHT22;47278;49.732;7.690;2023-02-01T00:16:16;6.40;99.90
61412;DHT22;47278;49.732;7.690;2023-02-01T00:18:43;6.40;99.90
61412;DHT22;47278;49.732;7.690;2023-02-01T00:21:12;6.40;99.90
61412;DHT22;47278;49.732;7.690;2023-02-01T00:23:38;6.40;99.90
61412;DHT22;47278;49.732;7.690;2023-02-01T00:26:07;6.30;99.90
61412;DHT22;47278;49.732;7.690;2023-02-01T00:28:32;6.40;99.90
61412;DHT22;47278;49.732;7.690;2023-02-01T00:30:58;6.40;99.90
61412;DHT22;47278;49.732;7.690;2023-02-01T00:33:24;6.40;99.90
61412;DHT22;47278;49.732;7.690;2023-02-01T00:35:49;6.40;99.90
61412;DHT22;47278;49.732;7.690;2023-02-01T00:38:15;6.40;99.90
61412;DHT22;47278;49.732;7.690;2023-02-01T00:40:41;6.40;99.90
61412;DHT22;47278;49.732;7.690;2023-02-01T00:43:06;6.40;99.90
61412;DHT22;47278;49.732;7.690;2023-02-01T00:45:32;6.50;99.90
61412;DHT22;47278;49.732;7.690;2023-02-01T00:47:57;6.50;99.90
61412;DHT22;47278;49.732;7.690;2023-02-01T00:50:23;6.50;99.90
61412;DHT22;47278;49.732;7.690;2023-02-01T00:52:48;6.60;99.90
61412;DHT22;47278;49.732;7.690;2023-02-01T00:55:14;6.50;99.90
61412;DHT22;47278;49.732;7.690;2023-02-01T00:57:39;5.80;99.90
61412;DHT22;47278;49.732;7.690;2023-02-01T01:00:05;6.60;99.90
61412;DHT22;47278;49.732;7.690;2023-02-01T01:02:31;6.60;99.90
61412;DHT22;47278;49.732;7.690;2023-02-01T01:04:56;6.60;99.90
61412;DHT22;47278;49.732;7.690;2023-02-01T01:07:22;6.60;99.90
61412;DHT22;47278;49.732;7.690;2023-02-01T01:09:47;6.60;99.90
61412;DHT22;47278;49.732;7.690;2023-02-01T01:12:13;6.60;99.90
61412;DHT22;47278;49.732;7.690;2023-02-01T01:14:38;6.60;99.90
61412;DHT22;47278;49.732;7.690;2023-02-01T01:17:04;6.70;99.90
61412;DHT22;47278;49.732;7.690;2023-02-01T01:19:29;6.70;99.90
61412;DHT22;47278;49.732;7.690;2023-02-01T01:21:55;6.70;99.90
61412;DHT22;47278;49.732;7.690;2023-02-01T01:24:20;6.70;99.90
61412;DHT22;47278;49.732;7.690;2023-02-01T01:26:46;6.70;99.90
61412;DHT22;47278;49.732;7.690;2023-02-01T01:29:11;6.70;99.90
61412;DHT22;47278;49.732;7.690;2023-02-01T01:31:37;6.70;99.90
61412;DHT22;47278;49.732;7.690;2023-02-01T01:34:02;6.70;99.90
61412;DHT22;47278;49.732;7.690;2023-02-01T01:36:28;6.70;99.90
61412;DHT22;47278;49.732;7.690;2023-02-01T01:38:54;6.70;99.90
61412;DHT22;47278;49.732;7.690;2023-02-01T01:41:20;6.70;99.90
61412;DHT22;47278;49.732;7.690;2023-02-01T01:43:51;6.70;99.90
61412;DHT22;47278;49.732;7.690;2023-02-01T01:46:21;6.70;99.90
61412;DHT22;47278;49.732;7.690;2023-02-01T01:48:58;6.70;99.90
61412;DHT22;47278;49.732;7.690;2023-02-01T01:51:25;6.60;99.90
61412;DHT22;47278;49.732;7.690;2023-02-01T01:53:58;6.60;99.90
61412;DHT22;47278;49.732;7.690;2023-02-01T01:56:25;6.60;99.90
61412;DHT22;47278;49.732;7.690;2023-02-01T01:58:51;6.60;99.90
61412;DHT22;47278;49.732;7.690;2023-02-01T02:01:17;6.60;99.90
61412;DHT22;47278;49.732;7.690;2023-02-01T02:03:43;6.60;99.90
61412;DHT22;47278;49.732;7.690;2023-02-01T02:06:12;6.50;99.90
61412;DHT22;47278;49.732;7.690;2023-02-01T02:08:40;6.90;99.90
61412;DHT22;47278;49.732;7.690;2023-02-01T02:11:06;6.50;99.90
61412;DHT22;47278;49.732;7.690;2023-02-01T02:13:38;6.40;99.90
61412;DHT22;47278;49.732;7.690;2023-02-01T02:18:40;6.40;99.90
61412;DHT22;47278;49.732;7.690;2023-02-01T02:21:14;6.40;99.90
61412;DHT22;47278;49.732;7.690;2023-02-01T02:23:55;6.40;99.90
61412;DHT22;47278;49.732;7.690;2023-02-01T02:34:12;6.40;99.90
61412;DHT22;47278;49.732;7.690;2023-02-01T02:39:23;6.40;99.90
61412;DHT22;47278;49.732;7.690;2023-02-01T02:44:49;6.50;99.90
61412;DHT22;47278;49.732;7.690;2023-02-01T02:52:52;6.60;99.90
61412;DHT22;47278;49.732;7.690;2023-02-01T02:55:38;6.70;99.90
61412;DHT22;47278;49.732;7.690;2023-02-01T02:58:05;6.60;99.90
61412;DHT22;47278;49.732;7.690;2023-02-01T03:00:51;6.60;99.90
61412;DHT22;47278;49.732;7.690;2023-02-01T03:03:36;6.60;99.90
61412;DHT22;47278;49.732;7.690;2023-02-01T03:06:22;6.70;99.90
61412;DHT22;47278;49.732;7.690;2023-02-01T03:08:48;6.70;99.90
61412;DHT22;47278;49.732;7.690;2023-02-01T03:11:14;6.80;99.90
61412;DHT22;47278;49.732;7.690;2023-02-01T03:13:53;6.80;99.90
61412;DHT22;47278;49.732;7.690;2023-02-01T03:16:20;6.80;99.90
61412;DHT22;47278;49.732;7.690;2023-02-01T03:23:55;6.80;99.90
61412;DHT22;47278;49.732;7.690;2023-02-01T03:26:22;6.80;99.90
61412;DHT22;47278;49.732;7.690;2023-02-01T03:28:52;6.80;99.90
61412;DHT22;47278;49.732;7.690;2023-02-01T03:31:20;6.80;99.90
61412;DHT22;47278;49.732;7.690;2023-02-01T03:33:45;6.60;99.90
61412;DHT22;47278;49.732;7.690;2023-02-01T03:36:20;6.60;99.90
61412;DHT22;47278;49.732;7.690;2023-02-01T03:39:03;6.50;99.90
61412;DHT22;47278;49.732;7.690;2023-02-01T03:46:47;6.60;99.90
61412;DHT22;47278;49.732;7.690;2023-02-01T03:49:18;6.60;99.90
61412;DHT22;47278;49.732;7.690;2023-02-01T03:51:45;6.60;99.90
61412;DHT22;47278;49.732;7.690;2023-02-01T03:54:12;6.60;99.90
61412;DHT22;47278;49.732;7.690;2023-02-01T03:56:39;6.60;99.90
61412;DHT22;47278;49.732;7.690;2023-02-01T03:59:06;6.50;99.90
61412;DHT22;47278;49.732;7.690;2023-02-01T04:01:32;6.50;99.90
61412;DHT22;47278;49.732;7.690;2023-02-01T04:03:57;6.30;99.90
61412;DHT22;47278;49.732;7.690;2023-02-01T04:06:23;6.40;99.90
61412;DHT22;47278;49.732;7.690;2023-02-01T04:08:49;6.40;99.90
61412;DHT22;47278;49.732;7.690;2023-02-01T04:11:15;6.40;99.90
61412;DHT22;47278;49.732;7.690;2023-02-01T04:13:41;6.30;99.90
61412;DHT22;47278;49.732;7.690;2023-02-01T04:16:06;6.30;99.90
61412;DHT22;47278;49.732;7.690;2023-02-01T04:18:32;6.20;99.90
61412;DHT22;47278;49.732;7.690;2023-02-01T04:20:57;6.10;99.90
61412;DHT22;47278;49.732;7.690;2023-02-01T04:23:23;6.10;99.90
61412;DHT22;47278;49.732;7.690;2023-02-01T04:25:48;6.10;99.90
61412;DHT22;47278;49.732;7.690;2023-02-01T04:28:14;6.20;99.90
61412;DHT22;47278;49.732;7.690;2023-02-01T04:30:39;6.00;99.90
61412;DHT22;47278;49.732;7.690;2023-02-01T04:33:05;6.00;99.90
61412;DHT22;47278;49.732;7.690;2023-02-01T04:35:30;6.10;99.90
61412;DHT22;47278;49.732;7.690;2023-02-01T04:37:56;6.10;99.90
61412;DHT22;47278;49.732;7.690;2023-02-01T04:40:21;6.20;99.90
61412;DHT22;47278;49.732;7.690;2023-02-01T04:42:47;6.10;99.90
61412;DHT22;47278;49.732;7.690;2023-02-01T04:45:12;5.90;99.90
61412;DHT22;47278;49.732;7.690;2023-02-01T04:47:38;5.90;99.90
61412;DHT22;47278;49.732;7.690;2023-02-01T04:50:04;5.80;99.90
61412;DHT22;47278;49.732;7.690;2023-02-01T04:52:31;5.70;99.90
61412;DHT22;47278;49.732;7.690;2023-02-01T04:54:56;5.70;99.90
61412;DHT22;47278;49.732;7.690;2023-02-01T04:57:24;5.60;99.90
61412;DHT22;47278;49.732;7.690;2023-02-01T04:59:50;5.60;99.90
61412;DHT22;47278;49.732;7.690;2023-02-01T05:02:15;5.50;99.90
61412;DHT22;47278;49.732;7.690;2023-02-01T05:04:41;5.50;99.90
61412;DHT22;47278;49.732;7.690;2023-02-01T05:07:06;5.60;99.90
61412;DHT22;47278;49.732;7.690;2023-02-01T05:09:32;5.50;99.90
61412;DHT22;47278;49.732;7.690;2023-02-01T05:11:57;5.60;99.90
61412;DHT22;47278;49.732;7.690;2023-02-01T05:14:42;5.50;99.90
61412;DHT22;47278;49.732;7.690;2023-02-01T05:17:07;5.60;99.90
61412;DHT22;47278;49.732;7.690;2023-02-01T05:19:33;5.60;99.90
61412;DHT22;47278;49.732;7.690;2023-02-01T05:21:58;5.60;99.90
61412;DHT22;47278;49.732;7.690;2023-02-01T05:24:24;5.60;99.90
61412;DHT22;47278;49.732;7.690;2023-02-01T05:26:49;5.60;99.90
61412;DHT22;47278;49.732;7.690;2023-02-01T05:29:15;5.60;99.90
61412;DHT22;47278;49.732;7.690;2023-02-01T05:31:41;5.60;99.90
61412;DHT22;47278;49.732;7.690;2023-02-01T05:34:09;5.70;99.90
61412;DHT22;47278;49.732;7.690;2023-02-01T05:36:34;5.70;99.90
61412;DHT22;47278;49.732;7.690;2023-02-01T05:39:00;5.70;99.90
61412;DHT22;47278;49.732;7.690;2023-02-01T05:41:25;5.70;99.90
61412;DHT22;47278;49.732;7.690;2023-02-01T05:43:51;5.80;99.90
61412;DHT22;47278;49.732;7.690;2023-02-01T05:46:17;5.80;99.90
61412;DHT22;47278;49.732;7.690;2023-02-01T05:48:42;5.80;99.90
61412;DHT22;47278;49.732;7.690;2023-02-01T05:51:08;5.70;99.90
61412;DHT22;47278;49.732;7.690;2023-02-01T05:53:34;5.80;99.90
61412;DHT22;47278;49.732;7.690;2023-02-01T05:55:59;5.80;99.90
61412;DHT22;47278;49.732;7.690;2023-02-01T05:58:25;5.90;99.90
61412;DHT22;47278;49.732;7.690;2023-02-01T06:00:51;6.00;99.90
61412;DHT22;47278;49.732;7.690;2023-02-01T06:03:16;5.90;99.90
61412;DHT22;47278;49.732;7.690;2023-02-01T06:05:45;6.00;99.90
61412;DHT22;47278;49.732;7.690;2023-02-01T06:08:10;6.00;99.90
61412;DHT22;47278;49.732;7.690;2023-02-01T06:10:36;6.20;99.90
61412;DHT22;47278;49.732;7.690;2023-02-01T06:13:01;6.30;99.90
61412;DHT22;47278;49.732;7.690;2023-02-01T06:15:29;6.30;99.90
61412;DHT22;47278;49.732;7.690;2023-02-01T06:17:54;6.50;99.90
61412;DHT22;47278;49.732;7.690;2023-02-01T06:20:20;6.40;99.90
61412;DHT22;47278;49.732;7.690;2023-02-01T06:22:46;6.30;99.90
61412;DHT22;47278;49.732;7.690;2023-02-01T06:25:11;6.40;99.90
61412;DHT22;47278;49.732;7.690;2023-02-01T06:27:37;6.50;99.90
61412;DHT22;47278;49.732;7.690;2023-02-01T06:30:03;6.60;99.90
61412;DHT22;47278;49.732;7.690;2023-02-01T06:32:29;6.60;99.90
61412;DHT22;47278;49.732;7.690;2023-02-01T06:34:55;6.60;99.90
61412;DHT22;47278;49.732;7.690;2023-02-01T06:37:21;6.50;99.90
61412;DHT22;47278;49.732;7.690;2023-02-01T06:39:48;6.60;99.90
61412;DHT22;47278;49.732;7.690;2023-02-01T06:42:14;6.40;99.90
61412;DHT22;47278;49.732;7.690;2023-02-01T06:44:39;6.50;99.90
61412;DHT22;47278;49.732;7.690;2023-02-01T06:47:05;6.50;99.90
61412;DHT22;47278;49.732;7.690;2023-02-01T06:49:30;6.50;99.90
61412;DHT22;47278;49.732;7.690;2023-02-01T06:51:56;6.70;99.90
61412;DHT22;47278;49.732;7.690;2023-02-01T06:54:21;6.70;99.90
61412;DHT22;47278;49.732;7.690;2023-02-01T06:56:47;9.20;99.90
61412;DHT22;47278;49.732;7.690;2023-02-01T06:59:13;6.70;99.90
61412;DHT22;47278;49.732;7.690;2023-02-01T07:01:38;6.60;99.90
61412;DHT22;47278;49.732;7.690;2023-02-01T07:04:04;6.60;99.90
61412;DHT22;47278;49.732;7.690;2023-02-01T07:06:30;6.60;99.90
61412;DHT22;47278;49.732;7.690;2023-02-01T07:08:55;6.70;99.90
61412;DHT22;47278;49.732;7.690;2023-02-01T07:11:22;6.70;99.90
61412;DHT22;47278;49.732;7.690;2023-02-01T07:13:48;6.60;99.90
61412;DHT22;47278;49.732;7.690;2023-02-01T07:16:17;6.50;99.90
61412;DHT22;47278;49.732;7.690;2023-02-01T07:18:43;6.40;99.90
61412;DHT22;47278;49.732;7.690;2023-02-01T07:21:09;6.50;99.90
61412;DHT22;47278;49.732;7.690;2023-02-01T07:23:35;6.60;99.90
61412;DHT22;47278;49.732;7.690;2023-02-01T07:26:01;6.50;99.90
61412;DHT22;47278;49.732;7.690;2023-02-01T07:28:29;6.40;99.90
61412;DHT22;47278;49.732;7.690;2023-02-01T07:30:55;6.50;99.90
61412;DHT22;47278;49.732;7.690;2023-02-01T07:33:21;6.50;99.90
61412;DHT22;47278;49.732;7.690;2023-02-01T07:35:47;6.40;99.90
61412;DHT22;47278;49.732;7.690;2023-02-01T07:38:13;6.40;99.90
61412;DHT22;47278;49.732;7.690;2023-02-01T07:40:39;6.40;99.90
61412;DHT22;47278;49.732;7.690;2023-02-01T07:43:04;6.30;99.90
61412;DHT22;47278;49.732;7.690;2023-02-01T07:45:31;4.60;99.90
61412;DHT22;47278;49.732;7.690;2023-02-01T07:47:57;6.30;99.90
61412;DHT22;47278;49.732;7.690;2023-02-01T07:50:22;6.20;99.90
61412;DHT22;47278;49.732;7.690;2023-02-01T07:52:48;6.10;99.90
61412;DHT22;47278;49.732;7.690;2023-02-01T07:55:13;6.10;99.90
61412;DHT22;47278;49.732;7.690;2023-02-01T07:57:39;6.00;99.90
61412;DHT22;47278;49.732;7.690;2023-02-01T08:00:04;5.70;99.90
61412;DHT22;47278;49.732;7.690;2023-02-01T08:02:50;5.50;99.90
61412;DHT22;47278;49.732;7.690;2023-02-01T08:05:16;5.60;99.90
61412;DHT22;47278;49.732;7.690;2023-02-01T08:07:41;5.80;99.90
61412;DHT22;47278;49.732;7.690;2023-02-01T08:10:07;5.80;99.90
61412;DHT22;47278;49.732;7.690;2023-02-01T08:12:36;5.80;99.90
61412;DHT22;47278;49.732;7.690;2023-02-01T08:15:02;5.90;99.90
61412;DHT22;47278;49.732;7.690;2023-02-01T08:17:27;6.10;99.90
61412;DHT22;47278;49.732;7.690;2023-02-01T08:19:54;6.10;99.90
61412;DHT22;47278;49.732;7.690;2023-02-01T08:22:20;6.20;99.90
61412;DHT22;47278;49.732;7.690;2023-02-01T08:24:47;6.20;99.90
61412;DHT22;47278;49.732;7.690;2023-02-01T08:27:13;6.40;99.90
61412;DHT22;47278;49.732;7.690;2023-02-01T08:29:38;6.50;99.90
61412;DHT22;47278;49.732;7.690;2023-02-01T08:32:04;6.50;99.90
61412;DHT22;47278;49.732;7.690;2023-02-01T08:34:30;6.60;99.90
61412;DHT22;47278;49.732;7.690;2023-02-01T08:36:55;8.10;99.90
61412;DHT22;47278;49.732;7.690;2023-02-01T08:39:24;6.70;99.90
61412;DHT22;47278;49.732;7.690;2023-02-01T08:41:50;6.70;99.90
61412;DHT22;47278;49.732;7.690;2023-02-01T08:44:34;6.80;99.90
61412;DHT22;47278;49.732;7.690;2023-02-01T08:46:59;6.80;99.90
61412;DHT22;47278;49.732;7.690;2023-02-01T08:49:25;6.80;99.90
61412;DHT22;47278;49.732;7.690;2023-02-01T08:51:50;7.00;99.90
61412;DHT22;47278;49.732;7.690;2023-02-01T08:54:16;7.00;99.90
61412;DHT22;47278;49.732;7.690;2023-02-01T08:56:41;6.90;99.90
61412;DHT22;47278;49.732;7.690;2023-02-01T08:59:07;6.90;99.90
61412;DHT22;47278;49.732;7.690;2023-02-01T09:01:33;6.90;99.90
61412;DHT22;47278;49.732;7.690;2023-02-01T09:03:58;7.00;99.90
61412;DHT22;47278;49.732;7.690;2023-02-01T09:06:24;7.00;99.90
61412;DHT22;47278;49.732;7.690;2023-02-01T09:08:49;6.90;99.90
61412;DHT22;47278;49.732;7.690;2023-02-01T09:11:16;6.90;99.90
61412;DHT22;47278;49.732;7.690;2023-02-01T09:13:44;6.90;99.90
61412;DHT22;47278;49.732;7.690;2023-02-01T09:16:09;6.90;99.90
61412;DHT22;47278;49.732;7.690;2023-02-01T09:18:35;6.90;99.90
61412;DHT22;47278;49.732;7.690;2023-02-01T09:21:04;6.90;99.90
61412;DHT22;47278;49.732;7.690;2023-02-01T09:23:30;7.00;99.90
61412;DHT22;47278;49.732;7.690;2023-02-01T09:26:00;6.90;99.90
61412;DHT22;47278;49.732;7.690;2023-02-01T09:28:25;6.90;99.90
61412;DHT22;47278;49.732;7.690;2023-02-01T09:30:54;6.90;99.90
61412;DHT22;47278;49.732;7.690;2023-02-01T09:33:20;6.90;99.90
61412;DHT22;47278;49.732;7.690;2023-02-01T09:35:46;7.00;99.90
61412;DHT22;47278;49.732;7.690;2023-02-01T09:38:12;7.00;99.90
61412;DHT22;47278;49.732;7.690;2023-02-01T09:40:39;7.00;99.90
61412;DHT22;47278;49.732;7.690;2023-02-01T09:43:12;7.00;99.90
61412;DHT22;47278;49.732;7.690;2023-02-01T09:48:10;7.10;99.90
61412;DHT22;47278;49.732;7.690;2023-02-01T09:50:38;7.10;99.90
61412;DHT22;47278;49.732;7.690;2023-02-01T09:53:05;7.10;99.90
61412;DHT22;47278;49.732;7.690;2023-02-01T09:55:41;7.20;99.90
61412;DHT22;47278;49.732;7.690;2023-02-01T09:58:13;7.00;99.90
61412;DHT22;47278;49.732;7.690;2023-02-01T10:00:40;7.00;99.90
61412;DHT22;47278;49.732;7.690;2023-02-01T10:03:09;7.10;99.90
61412;DHT22;47278;49.732;7.690;2023-02-01T10:08:08;7.10;99.90
61412;DHT22;47278;49.732;7.690;2023-02-01T10:10:46;7.10;99.90
61412;DHT22;47278;49.732;7.690;2023-02-01T10:15:47;7.20;99.90
61412;DHT22;47278;49.732;7.690;2023-02-01T10:18:29;7.20;99.90
61412;DHT22;47278;49.732;7.690;2023-02-01T10:26:18;7.20;99.90
61412;DHT22;47278;49.732;7.690;2023-02-01T10:28:46;7.20;99.90
61412;DHT22;47278;49.732;7.690;2023-02-01T10:31:13;7.20;99.90
61412;DHT22;47278;49.732;7.690;2023-02-01T10:33:58;7.20;99.90
61412;DHT22;47278;49.732;7.690;2023-02-01T10:39:28;7.20;99.90
61412;DHT22;47278;49.732;7.690;2023-02-01T10:41:54;7.30;99.90
61412;DHT22;47278;49.732;7.690;2023-02-01T10:44:22;7.30;99.90
61412;DHT22;47278;49.732;7.690;2023-02-01T10:46:49;7.30;99.90
61412;DHT22;47278;49.732;7.690;2023-02-01T10:49:17;7.30;99.90
61412;DHT22;47278;49.732;7.690;2023-02-01T10:54:38;7.30;99.90
61412;DHT22;47278;49.732;7.690;2023-02-01T10:57:20;7.20;99.90
61412;DHT22;47278;49.732;7.690;2023-02-01T10:59:46;7.20;99.90
61412;DHT22;47278;49.732;7.690;2023-02-01T11:02:20;7.20;99.90
61412;DHT22;47278;49.732;7.690;2023-02-01T11:04:46;7.20;99.90
61412;DHT22;47278;49.732;7.690;2023-02-01T11:07:19;7.20;99.90
61412;DHT22;47278;49.732;7.690;2023-02-01T11:09:49;7.20;99.90
61412;DHT22;47278;49.732;7.690;2023-02-01T11:12:29;7.20;99.90
61412;DHT22;47278;49.732;7.690;2023-02-01T11:14:59;7.20;99.90
61412;DHT22;47278;49.732;7.690;2023-02-01T11:17:28;7.10;99.90
61412;DHT22;47278;49.732;7.690;2023-02-01T11:19:58;7.10;99.90
61412;DHT22;47278;49.732;7.690;2023-02-01T11:22:24;7.10;99.90
61412;DHT22;47278;49.732;7.690;2023-02-01T11:24:50;7.20;99.90
61412;DHT22;47278;49.732;7.690;2023-02-01T11:27:17;7.20;99.90
61412;DHT22;47278;49.732;7.690;2023-02-01T11:29:46;7.20;99.90
61412;DHT22;47278;49.732;7.690;2023-02-01T11:32:12;7.30;99.90
61412;DHT22;47278;49.732;7.690;2023-02-01T11:37:04;7.20;99.90
61412;DHT22;47278;49.732;7.690;2023-02-01T11:39:35;7.20;99.90
61412;DHT22;47278;49.732;7.690;2023-02-01T11:42:02;7.30;99.90
61412;DHT22;47278;49.732;7.690;2023-02-01T11:49:43;7.30;99.90
61412;DHT22;47278;49.732;7.690;2023-02-01T12:05:33;7.50;99.90
61412;DHT22;47278;49.732;7.690;2023-02-01T12:13:31;7.50;99.90
61412;DHT22;47278;49.732;7.690;2023-02-01T12:19:08;7.50;99.90
61412;DHT22;47278;49.732;7.690;2023-02-01T12:21:45;7.60;99.90
61412;DHT22;47278;49.732;7.690;2023-02-01T12:32:13;7.60;99.90
61412;DHT22;47278;49.732;7.690;2023-02-01T12:37:16;7.80;99.90
61412;DHT22;47278;49.732;7.690;2023-02-01T12:42:23;7.90;99.90
61412;DHT22;47278;49.732;7.690;2023-02-01T12:47:27;7.90;99.90
61412;DHT22;47278;49.732;7.690;2023-02-01T12:49:57;8.00;99.90
61412;DHT22;47278;49.732;7.690;2023-02-01T12:52:42;8.00;99.90
61412;DHT22;47278;49.732;7.690;2023-02-01T12:55:34;8.00;99.90
61412;DHT22;47278;49.732;7.690;2023-02-01T13:00:39;8.20;99.90
61412;DHT22;47278;49.732;7.690;2023-02-01T13:05:33;8.20;99.90
61412;DHT22;47278;49.732;7.690;2023-02-01T13:08:05;8.50;99.90
61412;DHT22;47278;49.732;7.690;2023-02-01T13:10:41;8.10;99.90
61412;DHT22;47278;49.732;7.690;2023-02-01T13:15:43;8.10;99.90
61412;DHT22;47278;49.732;7.690;2023-02-01T13:18:13;8.30;99.90
61412;DHT22;47278;49.732;7.690;2023-02-01T13:20:58;8.30;99.90
61412;DHT22;47278;49.732;7.690;2023-02-01T13:25:50;8.30;99.90
61412;DHT22;47278;49.732;7.690;2023-02-01T13:28:18;8.40;99.90
61412;DHT22;47278;49.732;7.690;2023-02-01T13:30:54;8.70;99.90
61412;DHT22;47278;49.732;7.690;2023-02-01T13:36:06;8.90;99.90
61412;DHT22;47278;49.732;7.690;2023-02-01T13:41:39;9.10;99.90
61412;DHT22;47278;49.732;7.690;2023-02-01T13:44:14;9.00;99.90
61412;DHT22;47278;49.732;7.690;2023-02-01T13:46:41;9.00;99.90
61412;DHT22;47278;49.732;7.690;2023-02-01T13:49:13;9.10;99.90
61412;DHT22;47278;49.732;7.690;2023-02-01T13:51:45;9.20;99.90
61412;DHT22;47278;49.732;7.690;2023-02-01T13:56:49;9.10;99.90
61412;DHT22;47278;49.732;7.690;2023-02-01T14:02:11;9.20;99.90
61412;DHT22;47278;49.732;7.690;2023-02-01T14:04:46;9.20;99.90
61412;DHT22;47278;49.732;7.690;2023-02-01T14:07:19;9.60;99.90
61412;DHT22;47278;49.732;7.690;2023-02-01T14:09:44;9.40;99.90
61412;DHT22;47278;49.732;7.690;2023-02-01T14:15:16;9.10;99.90
61412;DHT22;47278;49.732;7.690;2023-02-01T14:17:41;9.30;99.90
61412;DHT22;47278;49.732;7.690;2023-02-01T14:22:51;9.40;99.90
61412;DHT22;47278;49.732;7.690;2023-02-01T14:25:25;9.40;99.90
61412;DHT22;47278;49.732;7.690;2023-02-01T14:27:50;9.60;99.90
61412;DHT22;47278;49.732;7.690;2023-02-01T14:30:18;9.10;99.90
61412;DHT22;47278;49.732;7.690;2023-02-01T14:32:44;9.00;99.90
61412;DHT22;47278;49.732;7.690;2023-02-01T14:35:20;9.40;99.90
61412;DHT22;47278;49.732;7.690;2023-02-01T14:37:46;11.20;99.90
61412;DHT22;47278;49.732;7.690;2023-02-01T14:47:50;11.60;99.90
61412;DHT22;47278;49.732;7.690;2023-02-01T14:58:15;11.70;99.90
61412;DHT22;47278;49.732;7.690;2023-02-01T15:01:03;12.10;99.90
61412;DHT22;47278;49.732;7.690;2023-02-01T15:05:55;10.40;99.90
61412;DHT22;47278;49.732;7.690;2023-02-01T15:08:25;9.70;99.90
61412;DHT22;47278;49.732;7.690;2023-02-01T15:10:51;9.20;99.90
61412;DHT22;47278;49.732;7.690;2023-02-01T15:13:35;8.80;99.90
61412;DHT22;47278;49.732;7.690;2023-02-01T15:16:13;8.60;99.90
61412;DHT22;47278;49.732;7.690;2023-02-01T15:18:40;8.40;99.90
61412;DHT22;47278;49.732;7.690;2023-02-01T15:21:06;8.40;99.90
61412;DHT22;47278;49.732;7.690;2023-02-01T15:23:32;8.60;99.90
61412;DHT22;47278;49.732;7.690;2023-02-01T15:25:58;8.20;99.90
61412;DHT22;47278;49.732;7.690;2023-02-01T15:28:25;8.20;99.90
61412;DHT22;47278;49.732;7.690;2023-02-01T15:33:19;8.10;99.90
61412;DHT22;47278;49.732;7.690;2023-02-01T15:35:46;8.00;99.90
61412;DHT22;47278;49.732;7.690;2023-02-01T15:38:19;7.90;99.90
61412;DHT22;47278;49.732;7.690;2023-02-01T15:41:01;7.90;99.90
61412;DHT22;47278;49.732;7.690;2023-02-01T15:43:28;7.80;99.90
61412;DHT22;47278;49.732;7.690;2023-02-01T15:46:01;7.90;99.90
61412;DHT22;47278;49.732;7.690;2023-02-01T15:48:32;7.90;99.90
61412;DHT22;47278;49.732;7.690;2023-02-01T15:51:00;7.90;99.90
61412;DHT22;47278;49.732;7.690;2023-02-01T15:53:26;7.80;99.90
61412;DHT22;47278;49.732;7.690;2023-02-01T15:55:57;7.80;99.90
61412;DHT22;47278;49.732;7.690;2023-02-01T15:58:24;7.80;99.90
61412;DHT22;47278;49.732;7.690;2023-02-01T16:00:57;7.80;99.90
61412;DHT22;47278;49.732;7.690;2023-02-01T16:03:43;7.70;99.90
61412;DHT22;47278;49.732;7.690;2023-02-01T16:06:10;7.60;99.90
61412;DHT22;47278;49.732;7.690;2023-02-01T16:08:36;7.60;99.90
61412;DHT22;47278;49.732;7.690;2023-02-01T16:13:33;7.60;99.90
61412;DHT22;47278;49.732;7.690;2023-02-01T16:15:59;7.60;99.90
61412;DHT22;47278;49.732;7.690;2023-02-01T16:18:25;7.60;99.90
61412;DHT22;47278;49.732;7.690;2023-02-01T16:20:50;7.70;99.90
61412;DHT22;47278;49.732;7.690;2023-02-01T16:23:16;7.70;99.90
61412;DHT22;47278;49.732;7.690;2023-02-01T16:25:42;7.70;99.90
61412;DHT22;47278;49.732;7.690;2023-02-01T16:28:07;7.70;99.90
61412;DHT22;47278;49.732;7.690;2023-02-01T16:30:33;7.80;99.90
61412;DHT22;47278;49.732;7.690;2023-02-01T16:33:00;7.70;99.90
61412;DHT22;47278;49.732;7.690;2023-02-01T16:37:53;7.50;99.90
61412;DHT22;47278;49.732;7.690;2023-02-01T16:40:19;7.50;99.90
61412;DHT22;47278;49.732;7.690;2023-02-01T16:42:47;7.60;99.90
61412;DHT22;47278;49.732;7.690;2023-02-01T16:45:14;7.50;99.90
61412;DHT22;47278;49.732;7.690;2023-02-01T16:47:40;7.40;99.90
61412;DHT22;47278;49.732;7.690;2023-02-01T16:50:17;7.40;99.90
61412;DHT22;47278;49.732;7.690;2023-02-01T16:52:44;7.40;99.90
61412;DHT22;47278;49.732;7.690;2023-02-01T16:55:13;7.50;99.90
61412;DHT22;47278;49.732;7.690;2023-02-01T16:57:39;7.50;99.90
61412;DHT22;47278;49.732;7.690;2023-02-01T17:00:05;7.50;99.90
61412;DHT22;47278;49.732;7.690;2023-02-01T17:02:30;7.40;99.90
61412;DHT22;47278;49.732;7.690;2023-02-01T17:04:56;7.50;99.90
61412;DHT22;47278;49.732;7.690;2023-02-01T17:07:21;7.60;99.90
61412;DHT22;47278;49.732;7.690;2023-02-01T17:09:47;7.60;99.90
61412;DHT22;47278;49.732;7.690;2023-02-01T17:12:21;7.60;99.90
61412;DHT22;47278;49.732;7.690;2023-02-01T17:14:47;7.50;99.90
61412;DHT22;47278;49.732;7.690;2023-02-01T17:17:13;7.50;99.90
61412;DHT22;47278;49.732;7.690;2023-02-01T17:19:39;7.40;99.90
61412;DHT22;47278;49.732;7.690;2023-02-01T17:22:05;7.40;99.90
61412;DHT22;47278;49.732;7.690;2023-02-01T17:24:31;7.50;99.90
61412;DHT22;47278;49.732;7.690;2023-02-01T17:26:56;7.50;99.90
61412;DHT22;47278;49.732;7.690;2023-02-01T17:29:22;8.50;99.90
61412;DHT22;47278;49.732;7.690;2023-02-01T17:31:49;7.40;99.90
61412;DHT22;47278;49.732;7.690;2023-02-01T17:34:15;7.40;99.90
61412;DHT22;47278;49.732;7.690;2023-02-01T17:36:42;7.40;99.90
61412;DHT22;47278;49.732;7.690;2023-02-01T17:39:09;7.30;99.90
61412;DHT22;47278;49.732;7.690;2023-02-01T17:41:35;7.40;99.90
61412;DHT22;47278;49.732;7.690;2023-02-01T17:44:01;7.40;99.90
61412;DHT22;47278;49.732;7.690;2023-02-01T17:46:27;7.40;99.90
61412;DHT22;47278;49.732;7.690;2023-02-01T17:48:53;7.30;99.90
61412;DHT22;47278;49.732;7.690;2023-02-01T17:51:20;7.30;99.90
61412;DHT22;47278;49.732;7.690;2023-02-01T17:53:46;7.20;99.90
61412;DHT22;47278;49.732;7.690;2023-02-01T17:56:15;7.30;99.90
61412;DHT22;47278;49.732;7.690;2023-02-01T17:58:41;7.30;99.90
61412;DHT22;47278;49.732;7.690;2023-02-01T18:01:15;7.30;99.90
61412;DHT22;47278;49.732;7.690;2023-02-01T18:03:41;7.30;99.90
61412;DHT22;47278;49.732;7.690;2023-02-01T18:06:10;7.50;99.90
61412;DHT22;47278;49.732;7.690;2023-02-01T18:08:37;7.10;99.90
61412;DHT22;47278;49.732;7.690;2023-02-01T18:11:05;7.10;99.90
61412;DHT22;47278;49.732;7.690;2023-02-01T18:13:33;7.10;99.90
61412;DHT22;47278;49.732;7.690;2023-02-01T18:15:58;7.00;99.90
61412;DHT22;47278;49.732;7.690;2023-02-01T18:18:26;7.10;99.90